Overview Statistics Trail Chart Weather Telemetry Raw packets
 

This is the latest recevied telemetry packets stored in our database for station/object IU5RUZ-13. If no packets are shown the sender has not sent any telemetry packets the latest 10 day(s).

Telemetry packets is used to share measurements like repeteater parameters, battery voltage, radiation readings (or any other measurements).

<< 1 2 3 4 >>
Time Press* Temp.in* Hum* QNH* Temp.out*
1788603084 1024.5 hPa 31.9 C deg 0 % 1026.2 hPa 0 C deg
1788601269 1024.6 hPa 31.8 C deg 0 % 1026.3 hPa 0 C deg
1788599454 1024.5 hPa 32 C deg 0 % 1026.2 hPa 0 C deg
1788597639 1024.4 hPa 31.7 C deg 0 % 1026.1 hPa 0 C deg
1788595824 1024.1 hPa 31.5 C deg 0 % 1025.8 hPa 0 C deg
1788594009 1024.3 hPa 31 C deg 0 % 1026 hPa 0 C deg
1788592194 1023.9 hPa 31.1 C deg 0 % 1025.6 hPa 0 C deg
1788590379 1023.7 hPa 31 C deg 0 % 1025.5 hPa 0 C deg
1788588564 1023.6 hPa 30.7 C deg 0 % 1025.3 hPa 0 C deg
1788586749 1023.5 hPa 30.5 C deg 0 % 1025.2 hPa 0 C deg
1788584934 1023.5 hPa 30.3 C deg 0 % 1025.2 hPa 0 C deg
1788583119 1023.3 hPa 30.2 C deg 0 % 1025 hPa 0 C deg
1788581304 1023.3 hPa 30.3 C deg 0 % 1025 hPa 0 C deg
1788579489 1023.2 hPa 30.2 C deg 0 % 1024.9 hPa 0 C deg
1788577674 1023.3 hPa 30.6 C deg 0 % 1025.1 hPa 0 C deg
1788575859 1023.4 hPa 30.6 C deg 0 % 1025.1 hPa 0 C deg
1788574044 1023.3 hPa 30.8 C deg 0 % 1025.1 hPa 0 C deg
1788572229 1023.4 hPa 31 C deg 0 % 1025.1 hPa 0 C deg
1788570414 1023.2 hPa 30.7 C deg 0 % 1024.9 hPa 0 C deg
1788568599 1023.3 hPa 30.9 C deg 0 % 1025 hPa 0 C deg
1788566784 1023.7 hPa 31.3 C deg 0 % 1025.4 hPa 0 C deg
1788564968 1023.8 hPa 31.2 C deg 0 % 1025.5 hPa 0 C deg
1788563153 1024 hPa 31.2 C deg 0 % 1025.7 hPa 0 C deg
1788561338 1024 hPa 31.5 C deg 0 % 1025.7 hPa 0 C deg
1788559523 1024.1 hPa 31.8 C deg 0 % 1025.8 hPa 0 C deg
*Used Equation Coefficients:
Press: 0, 1, 0
Temp.in: 0, 1, 0
Hum: 0, 1, 0
QNH: 0, 1, 0
Temp.out: 0, 1, 0

  • The parameter names for the analog channels will be Value1, Value2, Value3 (up to Value5) if station has not sent a PARAM-packet that specifies the parameter names for each analog channel.
  • Each analog value is a decimal number between 000 and 255 (according to APRS specifications). The receiver use the telemetry equation coefficientsto to restore the original sensor values. If no EQNS-packet with equation coefficients is sent we will show the values as is (this corresponds to the equation coefficients a=0, b=1 and c=0).
    The sent equation coefficients is used in the equation: a * value2 + b * value + c.
  • The units for the analog values will not be shown if station has not sent a UNIT-packet specifying what unit's to use.
  • The parameter names for the digital bits will be Bit1, Bit2, Bit3 (up to Bit8) if station has not sent a PARAM-packet that specifies the parameter names for each digital bit.
  • All bit labels will be named "On" if station has not sent a UNIT-packet that specifies the label of each bit.
  • A bit is considered to be On when the bit is 1 if station has not sent a BITS-packet that specifies another "Bit sense" (a BITS-packet specify the state of the bits that match the BIT labels)